Hildegaard — C6QU3 — position and weather

sailwx.info

Track history (hours):
 
Tides and Currents Weather Stations Pressure Air Temp Water Temp Dewpoint Dewpoint Depression Visibility Wind Speed Wind Dir Waves Ship Positions

Hildegaard

Last reported at 2016-Aug-30 11:31 UTC. Time now 2016-Aug-30 13:15 UTC.
Position N 53°32' E 000°07'.

Length 248 m; draft 12.2 m.

Type: Ship (hazmat cat A). MMSI: 308574000.

Date/timePositionNaut miles runAvg speedWind from/ knotsBaromVisibWave heightAir tempDewpointWater temp
2016-Aug-30 11:31N 53°32' E 000°07'0 0.1
2016-Aug-30 10:04N 53°32' E 000°07'0 0.0
2016-Aug-30 09:31N 53°32' E 000°07'0 0.0
2016-Aug-30 08:04N 53°32' E 000°07'0 0.0
2016-Aug-30 07:28N 53°32' E 000°07'0 0.0
2016-Aug-30 06:28N 53°32' E 000°07'0 0.1
2016-Aug-30 04:13N 53°32' E 000°07'0 0.0
2016-Aug-30 03:28N 53°32' E 000°07'0 0.0
2016-Aug-30 02:28N 53°32' E 000°07'0 0.0
2016-Aug-30 01:31N 53°32' E 000°07'0 0.0
2016-Aug-30 00:28N 53°32' E 000°07'0 0.0
2016-Aug-29 23:31N 53°32' E 000°07'0 0.2
2016-Aug-29 22:31N 53°32' E 000°07'0 0.2
2016-Aug-29 21:31N 53°32' E 000°07'0 0.0
2016-Aug-29 20:22N 53°32' E 000°07'0 0.0
2016-Aug-29 19:04N 53°32' E 000°07'0 0.0
2016-Aug-29 18:07N 53°32' E 000°07'0 0.0
2016-Aug-29 17:31N 53°32' E 000°07'0 0.0
2016-Aug-29 16:25N 53°32' E 000°07'0 0.3
2016-Aug-29 15:34N 53°32' E 000°08'5 5.4
2016-Aug-29 14:33N 53°34' E 000°16'8 7.2
2016-Aug-29 13:30N 53°41' E 000°21'0 0.0
2016-Aug-29 12:33N 53°41' E 000°21'3 3.2
2016-Aug-29 11:33N 53°44' E 000°21'5 4.9
2016-Aug-29 10:33N 53°49' E 000°21'5 4.8
2016-Aug-29 09:33N 53°54' E 000°21'10 9.9
2016-Aug-29 08:30N 54°04' E 000°15'1010.3
2016-Aug-29 07:34N 54°11' E 000°05'1110.5
2016-Aug-29 06:33N 54°19' W 000°07'1110.7
2016-Aug-29 05:33N 54°28' W 000°18'1310.9
2016-Aug-29 04:24N 54°37' W 000°34'1511.7
2016-Aug-29 03:08N 54°40' W 000°59'5 8.5
2016-Aug-29 02:34N 54°41' W 001°07'2 0.1
2016-Aug-28 06:13N 54°39' W 001°08'5 7.1
2016-Aug-28 05:33N 54°43' W 001°04'7 6.1
2016-Aug-28 04:30N 54°43' W 000°53'0 0.3
2016-Aug-28 03:29N 54°43' W 000°53'0 0.0
2016-Aug-28 02:29N 54°43' W 000°53'0 0.0
2016-Aug-28 01:26N 54°43' W 000°53'0 0.0
2016-Aug-28 00:29N 54°43' W 000°53'0 0.0
2016-Aug-27 23:32N 54°43' W 000°53'0 0.0
2016-Aug-27 22:29N 54°43' W 000°53'0 0.0
2016-Aug-27 21:32N 54°43' W 000°53'0 0.0
2016-Aug-27 20:32N 54°43' W 000°53'0 0.2
2016-Aug-27 19:33N 54°43' W 000°53'7 7.1
2016-Aug-27 18:33N 54°39' W 000°43'1111.4
2016-Aug-27 17:33N 54°33' W 000°27'1313.0
2016-Aug-27 16:33N 54°22' W 000°15'1212.1
2016-Aug-27 15:33N 54°17' E 000°04'1212.1
2016-Aug-27 14:33N 54°14' E 000°24'1211.5
2016-Aug-27 13:33N 54°11' E 000°43'1111.4
2016-Aug-27 12:33N 54°08' E 001°02'2411.6
2016-Aug-27 10:31N 53°58' E 001°38'1312.4
2016-Aug-27 09:29N 53°51' E 001°57'1312.7
2016-Aug-27 08:27N 53°44' E 002°15'1112.4
2016-Aug-27 07:33N 53°35' E 002°26'1212.5
2016-Aug-27 06:33N 53°24' E 002°36'2311.3
2016-Aug-27 04:32N 53°01' E 002°43'1010.6
2016-Aug-27 03:33N 52°51' E 002°41'1110.7
2016-Aug-27 02:33N 52°40' E 002°41'1211.5
2016-Aug-27 01:33N 52°29' E 002°42'1212.3
2016-Aug-27 00:33N 52°16' E 002°40'1312.8
2016-Aug-26 23:33N 52°04' E 002°40'1313.2
2016-Aug-26 22:33N 51°50' E 002°41'1211.6
2016-Aug-26 21:33N 51°46' E 002°58'1211.6
2016-Aug-26 20:33N 51°43' E 003°16'1312.6
2016-Aug-26 19:33N 51°32' E 003°25'10 9.8
2016-Aug-26 18:33N 51°26' E 003°39'4 4.2
2016-Aug-26 17:32N 51°24' E 003°44'0 0.0
2016-Aug-26 16:32N 51°24' E 003°44'0 0.1
2016-Aug-26 15:29N 51°24' E 003°44'0 0.3
2016-Aug-26 14:32N 51°24' E 003°44'0 0.0
2016-Aug-26 13:32N 51°24' E 003°44'0 0.0
2016-Aug-26 12:32N 51°24' E 003°44'0 0.0
2016-Aug-26 11:32N 51°24' E 003°44'0 0.0
2016-Aug-26 10:32N 51°24' E 003°44'0 0.0
2016-Aug-26 09:32N 51°24' E 003°44'0 0.2
2016-Aug-26 08:29N 51°24' E 003°44'0 0.0
2016-Aug-26 07:29N 51°24' E 003°44'0 0.0
2016-Aug-26 06:32N 51°24' E 003°44'0 0.0
2016-Aug-26 04:32N 51°24' E 003°44'0 0.0
2016-Aug-26 03:32N 51°24' E 003°44'0 0.2
2016-Aug-26 02:32N 51°24' E 003°44'0 0.2
2016-Aug-26 01:29N 51°24' E 003°44'0 0.0
2016-Aug-26 00:32N 51°24' E 003°44'0 0.0
2016-Aug-25 23:32N 51°24' E 003°44'1 1.3
2016-Aug-25 22:33N 51°25' E 003°43'9 8.9
2016-Aug-25 21:33N 51°25' E 003°28'1211.6
2016-Aug-25 20:33N 51°24' E 003°10'1212.1
2016-Aug-25 19:33N 51°22' E 002°51'7 7.3
2016-Aug-25 18:33N 51°22' E 002°39'2 2.2
2016-Aug-25 17:33N 51°22' E 002°35'5 4.6
2016-Aug-25 16:33N 51°21' E 002°28'5 5.4
2016-Aug-25 15:33N 51°19' E 002°20'6 6.4
2016-Aug-25 14:33N 51°16' E 002°11'9 8.9
2016-Aug-25 13:33N 51°11' E 001°59'9 9.3
2016-Aug-25 12:33N 51°07' E 001°46'6 6.4
2016-Aug-25 11:33N 51°03' E 001°38'4 4.2
2016-Aug-25 10:33N 50°59' E 001°35'4 4.2
2016-Aug-25 09:33N 50°56' E 001°30'5 5.0
2016-Aug-25 08:33N 50°52' E 001°26'6 5.7
2016-Aug-25 07:33N 50°46' E 001°23'6 5.8
2016-Aug-25 06:34N 50°41' E 001°19'13 6.5
2016-Aug-25 04:31N 50°33' E 001°03'7 6.7
2016-Aug-25 03:28N 50°29' E 000°54'7 6.8
2016-Aug-25 02:28N 50°27' E 000°44'9 7.1
2016-Aug-25 01:13N 50°24' E 000°30'5 7.4
2016-Aug-25 00:33N 50°23' E 000°23'8 8.0
2016-Aug-24 23:33N 50°20' E 000°11'8 8.0
2016-Aug-24 22:34N 50°19' W 000°01'7 6.6
2016-Aug-24 21:34N 50°19' W 000°12'5 4.8
2016-Aug-24 20:33N 50°19' W 000°19'4 4.4
2016-Aug-24 19:34N 50°20' W 000°26'4 3.8
2016-Aug-24 18:33N 50°20' W 000°32'4 3.6
2016-Aug-24 17:33N 50°20' W 000°38'4 4.4
2016-Aug-24 16:33N 50°22' W 000°44'6 6.2
2016-Aug-24 15:34N 50°26' W 000°50'6 5.9
2016-Aug-24 14:34N 50°31' W 000°55'8 7.4
2016-Aug-24 13:30N 50°38' W 001°03'1 0.7
2016-Aug-24 12:32N 50°38' W 001°03'0 0.0
2016-Aug-24 11:32N 50°38' W 001°03'0 0.0
2016-Aug-24 10:32N 50°38' W 001°03'0 0.0
2016-Aug-24 09:32N 50°38' W 001°03'0 0.2
2016-Aug-24 08:32N 50°38' W 001°03'0 0.1
2016-Aug-24 07:32N 50°38' W 001°03'0 0.0
2016-Aug-24 06:32N 50°38' W 001°03'0 0.0
2016-Aug-24 04:32N 50°38' W 001°03'0 0.0
2016-Aug-24 03:32N 50°38' W 001°03'0 0.2
2016-Aug-24 02:32N 50°38' W 001°03'0 0.1
2016-Aug-24 01:32N 50°38' W 001°03'0 0.0
2016-Aug-24 00:32N 50°38' W 001°03'0 0.0
2016-Aug-23 23:32N 50°38' W 001°03'0 0.0
2016-Aug-23 22:32N 50°38' W 001°03'0 0.0
2016-Aug-23 21:32N 50°38' W 001°03'0 0.2
2016-Aug-23 20:29N 50°38' W 001°03'0 0.1
2016-Aug-23 19:32N 50°38' W 001°03'0 0.0
2016-Aug-23 18:32N 50°38' W 001°03'0 0.0
2016-Aug-23 17:32N 50°38' W 001°03'0 0.0
2016-Aug-23 16:32N 50°38' W 001°03'0 0.0
2016-Aug-23 15:32N 50°38' W 001°03'0 0.0
2016-Aug-23 14:29N 50°38' W 001°03'0 0.2
2016-Aug-23 13:29N 50°38' W 001°03'0 0.0
2016-Aug-23 07:32N 50°38' W 001°03'0 0.0
2016-Aug-23 06:20N 50°38' W 001°03'0 0.0
2016-Aug-23 05:26N 50°38' W 001°03'0 0.0
2016-Aug-23 04:32N 50°38' W 001°03'0 0.1
2016-Aug-23 01:26N 50°38' W 001°03'0 0.0
2016-Aug-22 23:12N 50°38' W 001°03'0 0.0
2016-Aug-22 19:32N 50°38' W 001°03'5 4.5
2016-Aug-22 18:30N 50°42' W 000°58'1111.5
2016-Aug-22 17:33N 50°46' W 001°14'6 5.7
2016-Aug-22 16:33N 50°50' W 001°20'0 0.0
2016-Aug-22 15:33N 50°50' W 001°20'0 0.0
2016-Aug-22 14:33N 50°50' W 001°20'0 0.0
2016-Aug-22 13:33N 50°50' W 001°20'0 0.0
2016-Aug-22 12:33N 50°50' W 001°20'0 0.0
2016-Aug-22 11:33N 50°50' W 001°20'0 0.0
2016-Aug-22 10:33N 50°50' W 001°20'0 0.0
2016-Aug-22 09:33N 50°50' W 001°20'0 0.0
2016-Aug-22 08:33N 50°50' W 001°20'0 0.0
2016-Aug-22 07:33N 50°50' W 001°20'0 0.0
2016-Aug-22 06:33N 50°50' W 001°20'0 0.0
2016-Aug-22 05:33N 50°50' W 001°20'0 0.0
2016-Aug-22 04:33N 50°50' W 001°20'0 0.0
2016-Aug-22 03:33N 50°50' W 001°20'0 0.0
2016-Aug-22 02:33N 50°50' W 001°20'0 0.0
2016-Aug-22 01:33N 50°50' W 001°20'0 0.0
2016-Aug-22 00:33N 50°50' W 001°20'0 0.0
2016-Aug-21 23:33N 50°50' W 001°20'0 0.0
2016-Aug-21 22:33N 50°50' W 001°20'0 0.0
2016-Aug-21 21:33N 50°50' W 001°20'0 0.0
2016-Aug-21 20:33N 50°50' W 001°20'0 0.0
2016-Aug-21 19:30N 50°50' W 001°20'0 0.0
2016-Aug-21 18:33N 50°50' W 001°20'0 0.0
2016-Aug-21 17:33N 50°50' W 001°20'0 0.0
2016-Aug-21 16:33N 50°50' W 001°20'0 0.0
2016-Aug-21 15:33N 50°50' W 001°20'0 0.0
2016-Aug-21 14:33N 50°50' W 001°20'0 0.0
2016-Aug-21 13:33N 50°50' W 001°20'0 0.0
2016-Aug-21 12:33N 50°50' W 001°20'0 0.0
2016-Aug-21 11:33N 50°50' W 001°20'0 0.0
2016-Aug-21 10:33N 50°50' W 001°20'0 0.0
2016-Aug-21 09:33N 50°50' W 001°20'0 0.0
2016-Aug-21 08:33N 50°50' W 001°20'0 0.0
2016-Aug-21 07:33N 50°50' W 001°20'0 0.0
2016-Aug-21 06:33N 50°50' W 001°20'0 0.0
2016-Aug-21 05:33N 50°50' W 001°20'0 0.0
2016-Aug-21 04:33N 50°50' W 001°20'0 0.0
2016-Aug-21 03:33N 50°50' W 001°20'0 0.0
2016-Aug-21 02:33N 50°50' W 001°20'0 0.0
2016-Aug-21 01:33N 50°50' W 001°20'0 0.0
2016-Aug-21 00:33N 50°50' W 001°20'2 1.6
2016-Aug-20 23:34N 50°49' W 001°18'7 6.7
2016-Aug-20 22:34N 50°46' W 001°09'9 9.0
2016-Aug-20 21:33N 50°41' W 000°56'7 7.0
2016-Aug-20 20:32N 50°34' W 000°60'1 0.8
2016-Aug-20 19:29N 50°34' W 001°01'2 1.8
2016-Aug-20 18:33N 50°36' W 001°03'0 0.2
2016-Aug-20 17:13N 50°36' W 001°03'0 0.1
2016-Aug-20 16:31N 50°36' W 001°03'0 0.0
2016-Aug-20 15:25N 50°36' W 001°03'0 0.0
2016-Aug-20 14:31N 50°36' W 001°03'0 0.0
2016-Aug-20 13:31N 50°36' W 001°03'0 0.4
2016-Aug-20 12:31N 50°36' W 001°03'0 0.1
2016-Aug-20 11:31N 50°36' W 001°02'  
Track history (hours):
 
Tides and Currents Weather Stations Pressure Air Temp Water Temp Dewpoint Dewpoint Depression Visibility Wind Speed Wind Dir Waves Ship Positions

Hildegaard

Last reported at 2016-Aug-30 11:31 UTC. Time now 2016-Aug-30 13:15 UTC.
Position N 53°32' E 000°07'.

Length 248 m; draft 12.2 m.

Type: Ship (hazmat cat A). MMSI: 308574000.

Date/timePositionNaut miles runAvg speedWind from/ knotsBaromVisibWave heightAir tempDewpointWater temp
2016-Aug-30 11:31N 53°32' E 000°07'0 0.1
2016-Aug-30 10:04N 53°32' E 000°07'0 0.0
2016-Aug-30 09:31N 53°32' E 000°07'0 0.0
2016-Aug-30 08:04N 53°32' E 000°07'0 0.0
2016-Aug-30 07:28N 53°32' E 000°07'0 0.0
2016-Aug-30 06:28N 53°32' E 000°07'0 0.1
2016-Aug-30 04:13N 53°32' E 000°07'0 0.0
2016-Aug-30 03:28N 53°32' E 000°07'0 0.0
2016-Aug-30 02:28N 53°32' E 000°07'0 0.0
2016-Aug-30 01:31N 53°32' E 000°07'0 0.0
2016-Aug-30 00:28N 53°32' E 000°07'0 0.0
2016-Aug-29 23:31N 53°32' E 000°07'0 0.2
2016-Aug-29 22:31N 53°32' E 000°07'0 0.2
2016-Aug-29 21:31N 53°32' E 000°07'0 0.0
2016-Aug-29 20:22N 53°32' E 000°07'0 0.0
2016-Aug-29 19:04N 53°32' E 000°07'0 0.0
2016-Aug-29 18:07N 53°32' E 000°07'0 0.0
2016-Aug-29 17:31N 53°32' E 000°07'0 0.0
2016-Aug-29 16:25N 53°32' E 000°07'0 0.3
2016-Aug-29 15:34N 53°32' E 000°08'5 5.4
2016-Aug-29 14:33N 53°34' E 000°16'8 7.2
2016-Aug-29 13:30N 53°41' E 000°21'0 0.0
2016-Aug-29 12:33N 53°41' E 000°21'3 3.2
2016-Aug-29 11:33N 53°44' E 000°21'5 4.9
2016-Aug-29 10:33N 53°49' E 000°21'5 4.8
2016-Aug-29 09:33N 53°54' E 000°21'10 9.9
2016-Aug-29 08:30N 54°04' E 000°15'1010.3
2016-Aug-29 07:34N 54°11' E 000°05'1110.5
2016-Aug-29 06:33N 54°19' W 000°07'1110.7
2016-Aug-29 05:33N 54°28' W 000°18'1310.9
2016-Aug-29 04:24N 54°37' W 000°34'1511.7
2016-Aug-29 03:08N 54°40' W 000°59'5 8.5
2016-Aug-29 02:34N 54°41' W 001°07'2 0.1
2016-Aug-28 06:13N 54°39' W 001°08'5 7.1
2016-Aug-28 05:33N 54°43' W 001°04'7 6.1
2016-Aug-28 04:30N 54°43' W 000°53'0 0.3
2016-Aug-28 03:29N 54°43' W 000°53'0 0.0
2016-Aug-28 02:29N 54°43' W 000°53'0 0.0
2016-Aug-28 01:26N 54°43' W 000°53'0 0.0
2016-Aug-28 00:29N 54°43' W 000°53'0 0.0
2016-Aug-27 23:32N 54°43' W 000°53'0 0.0
2016-Aug-27 22:29N 54°43' W 000°53'0 0.0
2016-Aug-27 21:32N 54°43' W 000°53'0 0.0
2016-Aug-27 20:32N 54°43' W 000°53'0 0.2
2016-Aug-27 19:33N 54°43' W 000°53'7 7.1
2016-Aug-27 18:33N 54°39' W 000°43'1111.4
2016-Aug-27 17:33N 54°33' W 000°27'1313.0
2016-Aug-27 16:33N 54°22' W 000°15'1212.1
2016-Aug-27 15:33N 54°17' E 000°04'1212.1
2016-Aug-27 14:33N 54°14' E 000°24'1211.5
2016-Aug-27 13:33N 54°11' E 000°43'1111.4
2016-Aug-27 12:33N 54°08' E 001°02'2411.6
2016-Aug-27 10:31N 53°58' E 001°38'1312.4
2016-Aug-27 09:29N 53°51' E 001°57'1312.7
2016-Aug-27 08:27N 53°44' E 002°15'1112.4
2016-Aug-27 07:33N 53°35' E 002°26'1212.5
2016-Aug-27 06:33N 53°24' E 002°36'2311.3
2016-Aug-27 04:32N 53°01' E 002°43'1010.6
2016-Aug-27 03:33N 52°51' E 002°41'1110.7
2016-Aug-27 02:33N 52°40' E 002°41'1211.5
2016-Aug-27 01:33N 52°29' E 002°42'1212.3
2016-Aug-27 00:33N 52°16' E 002°40'1312.8
2016-Aug-26 23:33N 52°04' E 002°40'1313.2
2016-Aug-26 22:33N 51°50' E 002°41'1211.6
2016-Aug-26 21:33N 51°46' E 002°58'1211.6
2016-Aug-26 20:33N 51°43' E 003°16'1312.6
2016-Aug-26 19:33N 51°32' E 003°25'10 9.8
2016-Aug-26 18:33N 51°26' E 003°39'4 4.2
2016-Aug-26 17:32N 51°24' E 003°44'0 0.0
2016-Aug-26 16:32N 51°24' E 003°44'0 0.1
2016-Aug-26 15:29N 51°24' E 003°44'0 0.3
2016-Aug-26 14:32N 51°24' E 003°44'0 0.0
2016-Aug-26 13:32N 51°24' E 003°44'0 0.0
2016-Aug-26 12:32N 51°24' E 003°44'0 0.0
2016-Aug-26 11:32N 51°24' E 003°44'0 0.0
2016-Aug-26 10:32N 51°24' E 003°44'0 0.0
2016-Aug-26 09:32N 51°24' E 003°44'0 0.2
2016-Aug-26 08:29N 51°24' E 003°44'0 0.0
2016-Aug-26 07:29N 51°24' E 003°44'0 0.0
2016-Aug-26 06:32N 51°24' E 003°44'0 0.0
2016-Aug-26 04:32N 51°24' E 003°44'0 0.0
2016-Aug-26 03:32N 51°24' E 003°44'0 0.2
2016-Aug-26 02:32N 51°24' E 003°44'0 0.2
2016-Aug-26 01:29N 51°24' E 003°44'0 0.0
2016-Aug-26 00:32N 51°24' E 003°44'0 0.0
2016-Aug-25 23:32N 51°24' E 003°44'1 1.3
2016-Aug-25 22:33N 51°25' E 003°43'9 8.9
2016-Aug-25 21:33N 51°25' E 003°28'1211.6
2016-Aug-25 20:33N 51°24' E 003°10'1212.1
2016-Aug-25 19:33N 51°22' E 002°51'7 7.3
2016-Aug-25 18:33N 51°22' E 002°39'2 2.2
2016-Aug-25 17:33N 51°22' E 002°35'5 4.6
2016-Aug-25 16:33N 51°21' E 002°28'5 5.4
2016-Aug-25 15:33N 51°19' E 002°20'6 6.4
2016-Aug-25 14:33N 51°16' E 002°11'9 8.9
2016-Aug-25 13:33N 51°11' E 001°59'9 9.3
2016-Aug-25 12:33N 51°07' E 001°46'6 6.4
2016-Aug-25 11:33N 51°03' E 001°38'4 4.2
2016-Aug-25 10:33N 50°59' E 001°35'4 4.2
2016-Aug-25 09:33N 50°56' E 001°30'5 5.0
2016-Aug-25 08:33N 50°52' E 001°26'6 5.7
2016-Aug-25 07:33N 50°46' E 001°23'6 5.8
2016-Aug-25 06:34N 50°41' E 001°19'13 6.5
2016-Aug-25 04:31N 50°33' E 001°03'7 6.7
2016-Aug-25 03:28N 50°29' E 000°54'7 6.8
2016-Aug-25 02:28N 50°27' E 000°44'9 7.1
2016-Aug-25 01:13N 50°24' E 000°30'5 7.4
2016-Aug-25 00:33N 50°23' E 000°23'8 8.0
2016-Aug-24 23:33N 50°20' E 000°11'8 8.0
2016-Aug-24 22:34N 50°19' W 000°01'7 6.6
2016-Aug-24 21:34N 50°19' W 000°12'5 4.8
2016-Aug-24 20:33N 50°19' W 000°19'4 4.4
2016-Aug-24 19:34N 50°20' W 000°26'4 3.8
2016-Aug-24 18:33N 50°20' W 000°32'4 3.6
2016-Aug-24 17:33N 50°20' W 000°38'4 4.4
2016-Aug-24 16:33N 50°22' W 000°44'6 6.2
2016-Aug-24 15:34N 50°26' W 000°50'6 5.9
2016-Aug-24 14:34N 50°31' W 000°55'8 7.4
2016-Aug-24 13:30N 50°38' W 001°03'1 0.7
2016-Aug-24 12:32N 50°38' W 001°03'0 0.0
2016-Aug-24 11:32N 50°38' W 001°03'0 0.0
2016-Aug-24 10:32N 50°38' W 001°03'0 0.0
2016-Aug-24 09:32N 50°38' W 001°03'0 0.2
2016-Aug-24 08:32N 50°38' W 001°03'0 0.1
2016-Aug-24 07:32N 50°38' W 001°03'0 0.0
2016-Aug-24 06:32N 50°38' W 001°03'0 0.0
2016-Aug-24 04:32N 50°38' W 001°03'0 0.0
2016-Aug-24 03:32N 50°38' W 001°03'0 0.2
2016-Aug-24 02:32N 50°38' W 001°03'0 0.1
2016-Aug-24 01:32N 50°38' W 001°03'0 0.0
2016-Aug-24 00:32N 50°38' W 001°03'0 0.0
2016-Aug-23 23:32N 50°38' W 001°03'0 0.0
2016-Aug-23 22:32N 50°38' W 001°03'0 0.0
2016-Aug-23 21:32N 50°38' W 001°03'0 0.2
2016-Aug-23 20:29N 50°38' W 001°03'0 0.1
2016-Aug-23 19:32N 50°38' W 001°03'0 0.0
2016-Aug-23 18:32N 50°38' W 001°03'0 0.0
2016-Aug-23 17:32N 50°38' W 001°03'0 0.0
2016-Aug-23 16:32N 50°38' W 001°03'0 0.0
2016-Aug-23 15:32N 50°38' W 001°03'0 0.0
2016-Aug-23 14:29N 50°38' W 001°03'0 0.2
2016-Aug-23 13:29N 50°38' W 001°03'0 0.0
2016-Aug-23 07:32N 50°38' W 001°03'0 0.0
2016-Aug-23 06:20N 50°38' W 001°03'0 0.0
2016-Aug-23 05:26N 50°38' W 001°03'0 0.0
2016-Aug-23 04:32N 50°38' W 001°03'0 0.1
2016-Aug-23 01:26N 50°38' W 001°03'0 0.0
2016-Aug-22 23:12N 50°38' W 001°03'0 0.0
2016-Aug-22 19:32N 50°38' W 001°03'5 4.5
2016-Aug-22 18:30N 50°42' W 000°58'1111.5
2016-Aug-22 17:33N 50°46' W 001°14'6 5.7
2016-Aug-22 16:33N 50°50' W 001°20'0 0.0
2016-Aug-22 15:33N 50°50' W 001°20'0 0.0
2016-Aug-22 14:33N 50°50' W 001°20'0 0.0
2016-Aug-22 13:33N 50°50' W 001°20'0 0.0
2016-Aug-22 12:33N 50°50' W 001°20'0 0.0
2016-Aug-22 11:33N 50°50' W 001°20'0 0.0
2016-Aug-22 10:33N 50°50' W 001°20'0 0.0
2016-Aug-22 09:33N 50°50' W 001°20'0 0.0
2016-Aug-22 08:33N 50°50' W 001°20'0 0.0
2016-Aug-22 07:33N 50°50' W 001°20'0 0.0
2016-Aug-22 06:33N 50°50' W 001°20'0 0.0
2016-Aug-22 05:33N 50°50' W 001°20'0 0.0
2016-Aug-22 04:33N 50°50' W 001°20'0 0.0
2016-Aug-22 03:33N 50°50' W 001°20'0 0.0
2016-Aug-22 02:33N 50°50' W 001°20'0 0.0
2016-Aug-22 01:33N 50°50' W 001°20'0 0.0
2016-Aug-22 00:33N 50°50' W 001°20'0 0.0
2016-Aug-21 23:33N 50°50' W 001°20'0 0.0
2016-Aug-21 22:33N 50°50' W 001°20'0 0.0
2016-Aug-21 21:33N 50°50' W 001°20'0 0.0
2016-Aug-21 20:33N 50°50' W 001°20'0 0.0
2016-Aug-21 19:30N 50°50' W 001°20'0 0.0
2016-Aug-21 18:33N 50°50' W 001°20'0 0.0
2016-Aug-21 17:33N 50°50' W 001°20'0 0.0
2016-Aug-21 16:33N 50°50' W 001°20'0 0.0
2016-Aug-21 15:33N 50°50' W 001°20'0 0.0
2016-Aug-21 14:33N 50°50' W 001°20'0 0.0
2016-Aug-21 13:33N 50°50' W 001°20'0 0.0
2016-Aug-21 12:33N 50°50' W 001°20'0 0.0
2016-Aug-21 11:33N 50°50' W 001°20'0 0.0
2016-Aug-21 10:33N 50°50' W 001°20'0 0.0
2016-Aug-21 09:33N 50°50' W 001°20'0 0.0
2016-Aug-21 08:33N 50°50' W 001°20'0 0.0
2016-Aug-21 07:33N 50°50' W 001°20'0 0.0
2016-Aug-21 06:33N 50°50' W 001°20'0 0.0
2016-Aug-21 05:33N 50°50' W 001°20'0 0.0
2016-Aug-21 04:33N 50°50' W 001°20'0 0.0
2016-Aug-21 03:33N 50°50' W 001°20'0 0.0
2016-Aug-21 02:33N 50°50' W 001°20'0 0.0
2016-Aug-21 01:33N 50°50' W 001°20'0 0.0
2016-Aug-21 00:33N 50°50' W 001°20'2 1.6
2016-Aug-20 23:34N 50°49' W 001°18'7 6.7
2016-Aug-20 22:34N 50°46' W 001°09'9 9.0
2016-Aug-20 21:33N 50°41' W 000°56'7 7.0
2016-Aug-20 20:32N 50°34' W 000°60'1 0.8
2016-Aug-20 19:29N 50°34' W 001°01'2 1.8
2016-Aug-20 18:33N 50°36' W 001°03'0 0.2
2016-Aug-20 17:13N 50°36' W 001°03'0 0.1
2016-Aug-20 16:31N 50°36' W 001°03'0 0.0
2016-Aug-20 15:25N 50°36' W 001°03'0 0.0
2016-Aug-20 14:31N 50°36' W 001°03'0 0.0
2016-Aug-20 13:31N 50°36' W 001°03'0 0.4
2016-Aug-20 12:31N 50°36' W 001°03'0 0.1
2016-Aug-20 11:31N 50°36' W 001°02'  

Dump ship's entire track history